Time;durP1;ratioP1;P1;durP2;ratioP2;P2;SDS_P1;SDS_P2;PMS_P1;PMS_P2;Temp;Humidity;BMP_temperature;BMP_pressure;BME280_temperature;BME280_humidity;BME280_pressure;Samples;Min_cycle;Max_cycle;Signal;HPM_P1;HPM_P2
2023/01/04 00:00:46;;;;;;;80.65;45.50;;;;;;;3.58;85.95;100320.31;5115558;28;20426;-67
2023/01/04 00:03:11;;;;;;;74.47;43.05;;;;;;;3.26;89.25;100324.78;5112929;28;20414;-67
2023/01/04 00:05:37;;;;;;;83.55;44.53;;;;;;;3.60;87.31;100315.31;5114000;28;20024;-67
2023/01/04 00:08:02;;;;;;;84.43;45.97;;;;;;;3.70;86.11;100323.69;5115962;28;20023;-68
2023/01/04 00:10:28;;;;;;;87.32;44.85;;;;;;;3.84;85.91;100321.28;5115565;28;20051;-68
2023/01/04 00:12:53;;;;;;;82.57;43.80;;;;;;;3.81;85.68;100332.06;5114068;28;20047;-67
2023/01/04 00:15:19;;;;;;;68.75;38.63;;;;;;;3.73;85.28;100325.91;5114749;28;20016;-68
2023/01/04 00:17:44;;;;;;;60.38;34.83;;;;;;;3.58;84.21;100331.38;5109059;28;20495;-67
2023/01/04 00:20:10;;;;;;;54.35;32.80;;;;;;;3.54;84.36;100331.06;5093688;28;20032;-67
2023/01/04 00:22:35;;;;;;;56.95;32.72;;;;;;;3.55;83.96;100316.13;5094892;28;20020;-67
2023/01/04 00:25:01;;;;;;;55.30;33.17;;;;;;;3.42;84.59;100327.66;5094868;28;20097;-68
2023/01/04 00:27:26;;;;;;;51.72;33.25;;;;;;;3.18;86.94;100330.81;5122733;27;20039;-67
2023/01/04 00:29:52;;;;;;;61.85;33.95;;;;;;;3.21;90.37;100324.78;5115173;28;20038;-67
2023/01/04 00:32:17;;;;;;;62.67;33.75;;;;;;;3.26;90.11;100329.47;5112731;28;20403;-67
2023/01/04 00:34:43;;;;;;;65.57;35.97;;;;;;;3.42;89.93;100334.03;5114788;28;20020;-68
2023/01/04 00:37:08;;;;;;;63.95;37.03;;;;;;;3.59;89.87;100333.03;5114927;28;20088;-67
2023/01/04 00:39:34;;;;;;;55.30;33.03;;;;;;;3.84;88.39;100332.34;5113673;28;20028;-68
2023/01/04 00:42:04;;;;;;;72.20;36.72;;;;;;;3.97;87.42;100327.44;5114800;28;20047;-68
2023/01/04 00:44:33;;;;;;;63.17;34.20;;;;;;;3.85;87.43;100338.72;5113139;28;20494;-68
2023/01/04 00:47:00;;;;;;;63.97;33.58;;;;;;;3.95;87.95;100344.31;5112509;28;20019;-67
2023/01/04 00:49:27;;;;;;;60.42;31.55;;;;;;;4.07;86.76;100341.31;5108514;28;20528;-67
2023/01/04 00:51:52;;;;;;;53.90;31.52;;;;;;;4.20;86.52;100340.81;5114603;28;20023;-67
2023/01/04 00:54:18;;;;;;;60.78;34.30;;;;;;;3.93;85.23;100335.44;5114698;28;20023;-67
2023/01/04 00:56:44;;;;;;;56.45;31.25;;;;;;;3.64;87.11;100333.09;5114409;28;20102;-68
2023/01/04 00:59:12;;;;;;;49.03;29.42;;;;;;;3.90;87.26;100341.53;5112515;28;20030;-67
2023/01/04 01:01:39;;;;;;;53.00;30.98;;;;;;;4.03;86.58;100346.56;5113431;28;20083;-67
2023/01/04 01:04:04;;;;;;;50.35;29.20;;;;;;;4.18;86.24;100337.50;5111401;28;20032;-68
2023/01/04 01:06:31;;;;;;;46.33;29.73;;;;;;;4.24;85.43;100341.13;5114367;28;20027;-68
2023/01/04 01:08:58;;;;;;;46.88;28.73;;;;;;;4.33;84.29;100344.19;5114470;28;20034;-67
2023/01/04 01:11:24;;;;;;;49.50;29.55;;;;;;;3.82;85.41;100350.31;5114286;27;20023;-67
2023/01/04 01:13:50;;;;;;;51.00;29.17;;;;;;;4.20;84.79;100353.81;5112973;28;20080;-67
2023/01/04 01:16:18;;;;;;;51.33;28.20;;;;;;;4.30;83.82;100348.31;5114161;28;20023;-68
2023/01/04 01:18:44;;;;;;;53.33;29.50;;;;;;;4.46;83.78;100348.38;5112429;28;20024;-68
2023/01/04 01:21:18;;;;;;;52.65;28.60;;;;;;;4.39;82.11;100339.50;5114284;28;20023;-67
2023/01/04 01:23:44;;;;;;;51.80;29.10;;;;;;;4.47;82.36;100341.75;5114135;28;20384;-67
2023/01/04 01:26:15;;;;;;;57.88;30.02;;;;;;;4.28;83.10;100345.00;5114050;28;20054;-67
2023/01/04 01:28:42;;;;;;;50.25;28.38;;;;;;;4.29;82.39;100321.75;5114013;28;20028;-68
2023/01/04 01:31:16;;;;;;;48.90;26.42;;;;;;;4.25;82.41;100333.63;5112631;28;20023;-67
2023/01/04 01:33:44;;;;;;;43.45;27.20;;;;;;;4.16;83.11;100345.25;5110300;28;20043;-68
2023/01/04 01:36:12;;;;;;;42.17;25.98;;;;;;;3.99;85.12;100341.84;5113893;28;20023;-67
2023/01/04 01:38:38;;;;;;;47.33;25.88;;;;;;;4.13;87.00;100339.41;5112422;28;20052;-67
2023/01/04 01:41:05;;;;;;;37.20;22.00;;;;;;;4.29;86.10;100334.78;5113808;28;20016;-67
2023/01/04 01:43:52;;;;;;;41.33;22.52;;;;;;;4.51;85.18;100337.31;5113823;28;20466;-67
2023/01/04 01:46:35;;;;;;;29.48;18.83;;;;;;;4.42;86.04;100341.72;5112836;28;20048;-67
2023/01/04 01:49:26;;;;;;;29.08;16.73;;;;;;;4.45;86.95;100338.41;5106934;28;20076;-67
2023/01/04 01:51:54;;;;;;;32.83;15.90;;;;;;;4.60;87.13;100334.84;5105778;28;20470;-68
2023/01/04 01:54:30;;;;;;;28.55;15.57;;;;;;;4.73;86.45;100333.50;5113483;28;20537;-68
2023/01/04 01:56:58;;;;;;;22.58;13.40;;;;;;;4.87;87.17;100336.53;5113026;28;20406;-67
2023/01/04 01:59:26;;;;;;;24.55;14.65;;;;;;;4.96;87.30;100323.00;5113283;27;20027;-67
2023/01/04 02:01:51;;;;;;;26.08;14.95;;;;;;;5.04;87.16;100316.88;5112387;28;20505;-67
2023/01/04 02:04:17;;;;;;;25.40;15.35;;;;;;;5.19;87.62;100332.69;5112953;28;20028;-68
2023/01/04 02:06:47;;;;;;;22.60;15.15;;;;;;;5.25;88.28;100333.50;5113277;28;20015;-68
2023/01/04 02:09:13;;;;;;;26.60;15.93;;;;;;;5.31;87.94;100338.78;5113254;28;20072;-68
2023/01/04 02:11:38;;;;;;;26.63;16.85;;;;;;;5.32;86.86;100325.75;5111176;28;20032;-67
2023/01/04 02:17:09;;;;;;;23.90;14.75;;;;;;;5.53;88.86;100334.88;5112280;28;20054;-69
2023/01/04 02:19:43;;;;;;;20.48;14.13;;;;;;;5.64;88.49;100332.91;5112424;28;20058;-67
2023/01/04 02:22:41;;;;;;;20.38;12.88;;;;;;;5.76;86.96;100343.72;5111702;28;20175;-67
2023/01/04 02:25:43;;;;;;;27.13;14.90;;;;;;;5.77;86.45;100337.06;5112982;28;20058;-68
2023/01/04 02:28:30;;;;;;;19.40;12.80;;;;;;;5.76;86.44;100336.22;5107815;28;20030;-68
2023/01/04 02:31:26;;;;;;;23.20;13.55;;;;;;;5.73;85.76;100333.16;5111473;28;20023;-68
2023/01/04 02:33:52;;;;;;;20.75;13.68;;;;;;;5.84;85.65;100333.97;5111965;28;20034;-67
2023/01/04 02:36:39;;;;;;;20.30;12.75;;;;;;;5.86;86.42;100329.81;5112503;28;20443;-68
2023/01/04 02:39:33;;;;;;;19.65;12.02;;;;;;;6.00;86.81;100329.22;5112652;28;20020;-67
2023/01/04 02:42:15;;;;;;;22.90;11.95;;;;;;;6.14;85.23;100326.66;5109845;28;20023;-68
2023/01/04 02:44:53;;;;;;;19.27;11.35;;;;;;;6.25;85.53;100338.59;5098484;28;20025;-67
2023/01/04 02:50:31;;;;;;;19.85;13.18;;;;;;;6.52;84.43;100335.41;5092373;28;20100;-67
2023/01/04 02:53:17;;;;;;;15.10;11.00;;;;;;;6.55;83.56;100329.25;5092066;28;20021;-68
2023/01/04 02:56:00;;;;;;;19.15;10.73;;;;;;;6.73;83.71;100335.25;5102047;28;20401;-68
2023/01/04 02:58:50;;;;;;;16.77;11.90;;;;;;;6.86;83.05;100340.16;5112277;28;20080;-68
2023/01/04 03:08:11;;;;;;;18.60;11.70;;;;;;;6.90;83.72;100346.00;5112380;28;20350;-68
2023/01/04 03:10:36;;;;;;;19.20;13.05;;;;;;;6.93;83.39;100342.63;5111691;28;20026;-67
2023/01/04 03:13:25;;;;;;;21.27;13.50;;;;;;;6.89;83.49;100347.13;5110036;28;20494;-68
2023/01/04 03:15:59;;;;;;;21.10;12.82;;;;;;;6.93;84.22;100347.38;5111963;28;20024;-68
2023/01/04 03:18:28;;;;;;;18.13;13.32;;;;;;;7.03;84.22;100350.09;5110000;28;20024;-68
2023/01/04 03:20:56;;;;;;;21.45;15.05;;;;;;;7.05;84.30;100350.63;5111149;28;20027;-67
2023/01/04 03:37:43;;;;;;;22.88;14.00;;;;;;;6.88;85.24;100359.34;5111706;28;20039;-68
2023/01/04 03:49:11;;;;;;;19.05;11.52;;;;;;;6.67;82.79;100353.91;5110952;28;20119;-68
2023/01/04 03:51:38;;;;;;;19.88;12.02;;;;;;;6.65;82.84;100358.13;5109591;28;20475;-68
2023/01/04 03:54:10;;;;;;;22.75;13.55;;;;;;;6.62;81.95;100361.47;5111410;28;20027;-67
2023/01/04 03:56:40;;;;;;;23.50;14.90;;;;;;;6.67;81.43;100361.44;5108960;28;20096;-68
2023/01/04 03:59:06;;;;;;;21.58;13.35;;;;;;;6.61;80.83;100357.84;5110166;28;20024;-68
2023/01/04 04:01:32;;;;;;;22.33;12.77;;;;;;;6.60;80.49;100358.97;5110228;28;20031;-68
2023/01/04 04:09:26;;;;;;;26.15;16.63;;;;;;;6.33;84.04;100360.19;5111486;28;20076;-67
2023/01/04 04:11:51;;;;;;;23.52;13.23;;;;;;;6.26;85.04;100366.06;5109626;28;20452;-68
2023/01/04 04:14:17;;;;;;;22.55;14.43;;;;;;;6.29;84.64;100362.75;5110006;28;20035;-67
2023/01/04 04:16:42;;;;;;;23.17;16.00;;;;;;;6.23;85.33;100352.75;5111311;28;20530;-68
2023/01/04 04:19:08;;;;;;;22.08;14.43;;;;;;;6.53;84.27;100339.84;5109490;28;20023;-67
2023/01/04 04:21:33;;;;;;;25.55;14.43;;;;;;;6.76;82.94;100356.09;5111279;28;20019;-68
2023/01/04 04:23:59;;;;;;;28.10;17.13;;;;;;;6.76;82.99;100354.16;5109927;28;20032;-68
2023/01/04 04:26:24;;;;;;;31.52;18.85;;;;;;;6.69;82.69;100354.47;5109856;28;20026;-68
2023/01/04 04:28:50;;;;;;;32.80;18.23;;;;;;;6.64;82.67;100357.28;5109999;28;20035;-67
2023/01/04 04:31:16;;;;;;;25.55;16.65;;;;;;;6.64;82.82;100364.81;5109750;28;20506;-67
2023/01/04 04:33:41;;;;;;;28.63;15.32;;;;;;;6.69;82.68;100375.88;5099203;28;20032;-68
2023/01/04 04:36:07;;;;;;;21.13;14.32;;;;;;;6.69;82.10;100356.41;5114791;28;20024;-68
2023/01/04 04:38:33;;;;;;;25.50;13.35;;;;;;;6.72;82.35;100370.59;5115039;28;20452;-68
2023/01/04 04:43:43;;;;;;;19.80;12.68;;;;;;;6.72;81.96;100375.31;5115006;28;20030;-68
2023/01/04 04:46:08;;;;;;;22.80;13.68;;;;;;;6.82;81.29;100385.56;5114831;28;20016;-68
2023/01/04 04:48:34;;;;;;;29.67;18.00;;;;;;;6.88;80.60;100388.00;5112728;28;20028;-68
2023/01/04 04:50:59;;;;;;;42.13;20.90;;;;;;;6.87;80.44;100389.09;5114744;28;20023;-67
2023/01/04 04:53:25;;;;;;;19.15;12.38;;;;;;;6.57;79.28;100387.34;5114718;28;20027;-67
2023/01/04 04:55:52;;;;;;;31.35;18.98;;;;;;;6.39;79.45;100391.56;5112309;28;20044;-67
2023/01/04 04:58:18;;;;;;;33.58;19.60;;;;;;;6.31;80.27;100385.50;5114800;28;20111;-67
2023/01/04 05:00:43;;;;;;;19.10;13.57;;;;;;;6.28;80.78;100394.44;5113138;28;20019;-67
2023/01/04 05:03:09;;;;;;;25.42;13.68;;;;;;;6.35;81.16;100393.28;5111975;28;20111;-69
2023/01/04 05:05:34;;;;;;;21.17;13.68;;;;;;;6.49;80.91;100416.56;5114233;28;20081;-68
2023/01/04 05:07:59;;;;;;;18.70;12.55;;;;;;;6.62;80.03;100412.34;5113225;28;20016;-68
2023/01/04 05:10:25;;;;;;;22.98;13.02;;;;;;;6.58;79.22;100419.59;5114292;28;20027;-67
2023/01/04 05:12:59;;;;;;;19.13;11.35;;;;;;;6.55;78.27;100429.34;5113023;28;20023;-67
2023/01/04 05:15:31;;;;;;;19.75;12.80;;;;;;;6.44;78.28;100431.31;5114135;28;20027;-67
2023/01/04 05:17:57;;;;;;;24.25;14.18;;;;;;;6.02;79.39;100438.09;5112834;28;20092;-67
2023/01/04 05:20:22;;;;;;;26.13;18.70;;;;;;;6.12;78.49;100437.25;5114094;28;20023;-67
2023/01/04 05:22:48;;;;;;;20.85;13.88;;;;;;;5.79;78.34;100429.22;5111742;28;20055;-67
2023/01/04 05:25:13;;;;;;;24.02;14.57;;;;;;;5.53;77.21;100445.03;5112739;28;20019;-67
2023/01/04 05:27:39;;;;;;;24.45;15.50;;;;;;;5.15;77.67;100440.56;5114148;28;20094;-67
2023/01/04 05:32:49;;;;;;;24.52;15.90;;;;;;;4.63;78.70;100434.91;5112579;28;20620;-67
2023/01/04 05:35:15;;;;;;;23.48;14.63;;;;;;;4.64;78.84;100441.25;5113822;28;20023;-68
2023/01/04 05:37:41;;;;;;;25.50;16.08;;;;;;;4.15;79.36;100448.78;5113872;28;20108;-67
2023/01/04 05:40:07;;;;;;;24.98;16.05;;;;;;;4.14;80.72;100460.97;5113908;28;20019;-68
2023/01/04 05:42:32;;;;;;;26.08;16.05;;;;;;;3.58;80.76;100469.69;5112457;28;20508;-67
2023/01/04 05:44:58;;;;;;;51.80;16.10;;;;;;;3.02;82.06;100468.09;5113619;28;20023;-67
2023/01/04 05:47:24;;;;;;;24.80;16.42;;;;;;;2.87;84.11;100464.03;5111534;28;20075;-68
2023/01/04 05:49:51;;;;;;;30.13;16.63;;;;;;;3.07;83.24;100462.59;5110439;28;20079;-67
2023/01/04 05:52:17;;;;;;;37.38;18.30;;;;;;;3.21;83.60;100472.13;5113166;27;20031;-69
2023/01/04 05:54:43;;;;;;;32.03;20.70;;;;;;;2.95;84.58;100465.50;5112192;28;20119;-70
2023/01/04 05:57:09;;;;;;;29.58;18.48;;;;;;;2.86;85.31;100470.66;5113627;28;20023;-70
2023/01/04 05:59:35;;;;;;;34.95;18.70;;;;;;;2.94;85.40;100467.44;5114110;28;20024;-70
2023/01/04 06:02:01;;;;;;;32.85;21.88;;;;;;;2.81;84.71;100484.44;5113180;28;20023;-69
2023/01/04 06:04:26;;;;;;;49.80;26.83;;;;;;;2.55;87.19;100473.06;5110458;28;20019;-69
2023/01/04 06:06:52;;;;;;;47.50;25.35;;;;;;;2.84;86.77;100488.59;5107099;28;20066;-69
2023/01/04 06:09:17;;;;;;;31.98;19.40;;;;;;;3.02;86.39;100477.19;5096016;28;20123;-69
2023/01/04 06:11:43;;;;;;;50.25;24.30;;;;;;;2.84;84.87;100478.38;5099319;28;20479;-70
2023/01/04 06:14:08;;;;;;;51.20;29.25;;;;;;;2.92;84.18;100477.06;5109134;28;20027;-69
2023/01/04 06:16:34;;;;;;;42.92;24.13;;;;;;;3.04;84.07;100482.47;5108897;28;20055;-70
2023/01/04 06:19:00;;;;;;;43.88;21.50;;;;;;;3.11;84.01;100483.09;5107255;28;20028;-70
2023/01/04 06:21:25;;;;;;;87.53;46.50;;;;;;;3.26;84.24;100489.88;5110275;28;20565;-70
2023/01/04 06:23:52;;;;;;;159.98;76.93;;;;;;;2.84;85.42;100492.19;5108254;28;20034;-70
2023/01/04 06:26:17;;;;;;;160.82;86.40;;;;;;;2.52;88.97;100496.50;5110221;28;20423;-69
2023/01/04 06:28:43;;;;;;;97.28;57.00;;;;;;;3.00;88.51;100498.75;5106311;28;20030;-69
2023/01/04 06:31:10;;;;;;;89.47;50.90;;;;;;;3.17;86.87;100503.31;5108894;28;20395;-70
2023/01/04 06:33:35;;;;;;;71.82;42.20;;;;;;;3.18;86.29;100503.06;5107858;28;20030;-70
2023/01/04 06:36:01;;;;;;;91.53;48.80;;;;;;;3.36;86.82;100512.94;5107521;28;20036;-70
2023/01/04 06:38:27;;;;;;;55.17;30.67;;;;;;;3.05;85.30;100514.56;5109927;28;20156;-69
2023/01/04 06:40:53;;;;;;;50.85;29.73;;;;;;;2.99;83.83;100513.66;5108682;28;20031;-69
2023/01/04 06:43:18;;;;;;;60.55;34.92;;;;;;;3.27;83.90;100511.72;5107507;28;20090;-68
2023/01/04 06:45:44;;;;;;;77.45;45.60;;;;;;;3.43;83.35;100517.41;5100591;28;20027;-68
2023/01/04 06:48:09;;;;;;;64.20;36.28;;;;;;;3.03;85.34;100523.09;5098852;28;20465;-68
2023/01/04 06:50:35;;;;;;;58.53;32.45;;;;;;;3.28;86.20;100513.41;5105936;28;20036;-68
2023/01/04 06:53:00;;;;;;;115.47;67.78;;;;;;;3.57;86.67;100512.31;5107895;28;20071;-69
2023/01/04 06:55:28;;;;;;;79.30;46.60;;;;;;;3.85;85.51;100505.63;5094057;28;20922;-68
2023/01/04 06:57:54;;;;;;;70.22;36.15;;;;;;;4.08;82.99;100511.91;5108034;28;20040;-68
2023/01/04 07:00:20;;;;;;;63.03;33.08;;;;;;;3.96;82.69;100517.59;5106791;28;20510;-69
2023/01/04 07:02:46;;;;;;;44.55;26.60;;;;;;;3.76;83.55;100521.03;5101110;28;21734;-68
2023/01/04 07:05:12;;;;;;;47.25;23.65;;;;;;;3.73;84.96;100511.31;5108918;28;20061;-69
2023/01/04 07:07:37;;;;;;;33.28;19.88;;;;;;;3.89;84.60;100523.38;5103067;28;20194;-68
2023/01/04 07:10:04;;;;;;;65.20;34.88;;;;;;;3.93;84.41;100518.13;5094293;28;20106;-69
2023/01/04 07:12:31;;;;;;;47.95;28.35;;;;;;;4.12;84.98;100512.19;5105526;28;20027;-68
2023/01/04 07:14:56;;;;;;;43.97;25.02;;;;;;;4.43;84.31;100517.91;5108244;28;20027;-67
2023/01/04 07:17:22;;;;;;;48.30;29.02;;;;;;;4.67;83.71;100520.25;5105353;28;20128;-69
2023/01/04 07:19:48;;;;;;;58.38;34.03;;;;;;;4.92;83.12;100514.00;5104313;28;20035;-68
2023/01/04 07:22:13;;;;;;;58.30;36.55;;;;;;;5.13;81.97;100508.50;5096708;28;20081;-69
2023/01/04 07:24:39;;;;;;;70.57;45.10;;;;;;;5.07;82.27;100510.47;5104313;28;20024;-69
2023/01/04 07:27:04;;;;;;;68.55;45.28;;;;;;;5.29;82.03;100507.47;5099341;28;20110;-70
2023/01/04 07:29:30;;;;;;;67.75;41.45;;;;;;;5.56;82.28;100511.13;5101263;28;20024;-70
2023/01/04 07:31:56;;;;;;;63.70;38.13;;;;;;;5.75;82.08;100514.19;5102464;28;20027;-71
2023/01/04 07:34:24;;;;;;;80.93;42.22;;;;;;;6.15;81.40;100511.69;5101532;28;20258;-70
2023/01/04 07:36:50;;;;;;;93.35;58.88;;;;;;;6.41;81.58;100508.88;5106890;28;20031;-73
2023/01/04 07:39:17;;;;;;;48.78;28.15;;;;;;;6.66;83.66;100504.34;5106511;28;20031;-68
2023/01/04 07:41:43;;;;;;;33.95;20.65;;;;;;;7.01;83.93;100511.72;5105281;28;20513;-69
2023/01/04 07:44:10;;;;;;;33.72;19.60;;;;;;;7.45;82.97;100515.63;5106455;28;20515;-68
2023/01/04 07:46:36;;;;;;;29.10;18.15;;;;;;;7.75;82.27;100518.50;5104501;28;20030;-68
2023/01/04 07:49:03;;;;;;;33.10;18.88;;;;;;;8.05;80.85;100521.31;5117194;28;20121;-70
2023/01/04 07:51:30;;;;;;;31.73;20.88;;;;;;;8.29;79.91;100516.63;5107182;28;20035;-65
2023/01/04 07:53:55;;;;;;;52.10;35.75;;;;;;;8.60;78.66;100526.66;5100834;28;20032;-66
2023/01/04 07:56:21;;;;;;;36.42;21.30;;;;;;;8.72;78.65;100523.47;5106884;28;20092;-68
2023/01/04 07:58:47;;;;;;;39.38;19.50;;;;;;;8.91;77.36;100526.31;5099619;28;20035;-70
2023/01/04 08:01:15;;;;;;;49.78;21.88;;;;;;;9.09;76.57;100526.63;5094119;28;20058;-71
2023/01/04 08:03:41;;;;;;;32.85;19.05;;;;;;;9.32;75.30;100524.09;5106598;28;20028;-70
2023/01/04 08:06:10;;;;;;;37.28;20.60;;;;;;;9.38;74.74;100529.28;5107790;28;20405;-70
2023/01/04 08:08:35;;;;;;;33.38;20.23;;;;;;;9.50;74.51;100528.88;5109736;28;20023;-70
2023/01/04 08:11:07;;;;;;;39.20;21.27;;;;;;;9.61;74.63;100523.13;5113710;28;20027;-71
2023/01/04 08:13:33;;;;;;;35.22;18.25;;;;;;;9.73;73.80;100529.09;5113124;28;20028;-71
2023/01/04 08:15:59;;;;;;;31.13;17.05;;;;;;;9.58;74.40;100532.09;5113852;28;20030;-71
2023/01/04 08:18:24;;;;;;;24.35;16.88;;;;;;;9.58;73.94;100518.97;5113921;28;20490;-70
2023/01/04 08:21:03;;;;;;;24.83;16.88;;;;;;;9.81;73.57;100530.34;5110700;28;20050;-70
2023/01/04 08:23:29;;;;;;;30.05;17.67;;;;;;;9.83;73.20;100526.13;5094113;28;20195;-69
2023/01/04 08:25:54;;;;;;;28.60;17.15;;;;;;;9.98;72.04;100522.22;5110728;28;20023;-70
2023/01/04 08:28:20;;;;;;;27.52;17.55;;;;;;;10.17;71.48;100531.72;5113535;28;20413;-70
2023/01/04 08:30:45;;;;;;;29.23;16.80;;;;;;;10.20;72.17;100528.31;5113833;28;20025;-70
2023/01/04 08:33:13;;;;;;;26.95;15.50;;;;;;;10.28;71.39;100524.00;5111963;28;21004;-69
2023/01/04 08:35:39;;;;;;;28.80;17.63;;;;;;;10.36;71.05;100523.25;5112207;28;20134;-70
2023/01/04 08:38:05;;;;;;;29.02;17.67;;;;;;;10.35;71.65;100536.44;5111721;28;20039;-72
2023/01/04 08:40:30;;;;;;;28.40;16.05;;;;;;;10.50;70.56;100524.16;5110429;28;20113;-71
2023/01/04 08:42:56;;;;;;;30.23;18.42;;;;;;;10.49;70.49;100528.06;5103004;28;20024;-71
2023/01/04 08:45:21;;;;;;;27.05;16.33;;;;;;;10.60;70.88;100523.13;5110868;28;20126;-71
2023/01/04 08:47:47;;;;;;;27.55;15.50;;;;;;;10.65;70.17;100522.19;5111514;28;20047;-71
2023/01/04 08:50:15;;;;;;;25.85;16.13;;;;;;;10.80;69.53;100516.28;5112905;28;20119;-71
2023/01/04 08:52:41;;;;;;;30.08;19.50;;;;;;;10.84;69.62;100518.47;5104910;28;20031;-71
2023/01/04 08:55:08;;;;;;;27.77;17.90;;;;;;;10.92;69.48;100515.78;5103916;28;20044;-71
2023/01/04 08:57:34;;;;;;;35.20;21.58;;;;;;;11.18;68.43;100517.19;5109880;28;20020;-72
2023/01/04 08:59:59;;;;;;;29.58;17.67;;;;;;;11.21;68.12;100503.41;5103948;28;20023;-72
2023/01/04 09:02:26;;;;;;;28.70;17.30;;;;;;;11.29;67.79;100510.22;5110198;28;20039;-71
2023/01/04 09:04:58;;;;;;;37.08;21.17;;;;;;;11.44;67.61;100499.81;5100533;28;20027;-72
2023/01/04 09:07:24;;;;;;;29.35;16.92;;;;;;;11.31;66.94;100501.50;5112745;28;20096;-72
2023/01/04 09:09:50;;;;;;;22.33;14.52;;;;;;;11.34;66.70;100492.47;5111817;28;20098;-72
2023/01/04 09:12:15;;;;;;;30.35;15.68;;;;;;;11.54;66.25;100498.75;5111970;28;20564;-71
2023/01/04 09:14:41;;;;;;;29.30;17.67;;;;;;;11.64;66.08;100490.94;5113219;28;20515;-71
2023/01/04 09:17:06;;;;;;;28.77;17.75;;;;;;;11.64;66.12;100496.53;5113235;28;20517;-71
2023/01/04 09:19:32;;;;;;;28.17;16.85;;;;;;;11.70;66.00;100488.81;5108289;28;20115;-72
2023/01/04 09:21:57;;;;;;;29.80;17.10;;;;;;;11.87;65.84;100485.31;5111484;28;20198;-68
2023/01/04 09:24:23;;;;;;;26.58;17.13;;;;;;;11.82;65.92;100488.25;5109145;28;20479;-70
2023/01/04 09:26:48;;;;;;;24.85;17.35;;;;;;;11.82;66.11;100479.81;5111721;28;20051;-70
2023/01/04 09:29:14;;;;;;;35.22;19.35;;;;;;;12.07;65.15;100486.81;5108363;28;20036;-69
2023/01/04 09:31:40;;;;;;;24.30;16.20;;;;;;;11.97;65.34;100477.81;5110507;28;20397;-72
2023/01/04 09:34:05;;;;;;;31.38;16.92;;;;;;;12.09;65.62;100478.09;5110092;27;20058;-72
2023/01/04 09:36:31;;;;;;;21.95;13.30;;;;;;;12.03;64.75;100471.78;5111965;28;20059;-71
2023/01/04 09:38:56;;;;;;;32.10;15.77;;;;;;;12.21;64.53;100464.28;5112723;28;20023;-72
2023/01/04 09:41:33;;;;;;;23.98;15.25;;;;;;;12.18;63.96;100478.13;5111161;28;20477;-71
2023/01/04 09:44:13;;;;;;;28.83;17.40;;;;;;;12.25;63.60;100469.25;5113365;28;20134;-72
2023/01/04 09:46:49;;;;;;;22.60;15.35;;;;;;;12.25;63.73;100460.84;5107054;28;20043;-74
2023/01/04 09:49:56;;;;;;;30.58;16.05;;;;;;;12.40;63.37;100451.97;5109693;27;20092;-71
2023/01/04 09:52:31;;;;;;;34.42;21.90;;;;;;;12.55;63.54;100444.28;5103365;28;20532;-74
2023/01/04 09:55:02;;;;;;;32.95;15.80;;;;;;;12.49;62.72;100449.25;5110641;28;20126;-72
2023/01/04 09:57:32;;;;;;;26.52;16.60;;;;;;;12.66;62.78;100442.03;5103637;27;20518;-72
2023/01/04 10:00:14;;;;;;;22.10;14.20;;;;;;;12.46;61.95;100447.91;5112984;28;20458;-72
2023/01/04 10:02:45;;;;;;;23.23;15.82;;;;;;;12.55;62.06;100431.09;5108456;28;20039;-72
2023/01/04 10:05:22;;;;;;;26.88;14.70;;;;;;;12.61;62.35;100440.19;5112232;28;20128;-72
2023/01/04 10:07:48;;;;;;;23.70;14.32;;;;;;;12.87;60.81;100437.47;5108656;28;20083;-72
2023/01/04 10:10:16;;;;;;;26.80;15.95;;;;;;;12.94;60.91;100436.97;5104125;28;20126;-71
2023/01/04 10:12:55;;;;;;;206.82;96.45;;;;;;;12.83;61.01;100436.44;5109168;28;20020;-73
2023/01/04 10:15:38;;;;;;;165.30;82.13;;;;;;;12.77;60.80;100427.34;5103753;27;20407;-71
2023/01/04 10:18:24;;;;;;;25.52;16.23;;;;;;;12.92;60.48;100426.06;5106917;27;20474;-72
2023/01/04 10:21:09;;;;;;;22.92;12.85;;;;;;;12.89;59.70;100420.25;5106588;28;20102;-73
2023/01/04 10:23:56;;;;;;;24.70;16.13;;;;;;;12.77;59.69;100423.72;5106322;28;20301;-71
2023/01/04 10:26:35;;;;;;;61.53;34.25;;;;;;;12.84;59.87;100423.25;5101132;28;20064;-72
2023/01/04 10:29:35;;;;;;;31.88;20.58;;;;;;;13.00;59.19;100418.78;5098453;28;20035;-71
2023/01/04 10:32:36;;;;;;;29.98;18.35;;;;;;;12.89;59.28;100423.91;5099250;28;20813;-70
2023/01/04 10:35:19;;;;;;;38.35;24.05;;;;;;;12.92;59.18;100419.63;5101656;28;20379;-69
2023/01/04 10:37:47;;;;;;;28.23;15.23;;;;;;;12.95;58.95;100412.50;5128811;27;20040;-71
2023/01/04 10:40:15;;;;;;;22.42;13.35;;;;;;;12.91;58.53;100409.53;5091211;28;20027;-70
2023/01/04 10:43:04;;;;;;;18.83;12.70;;;;;;;12.89;58.80;100411.84;5101870;28;20615;-70
2023/01/04 10:45:42;;;;;;;22.55;15.70;;;;;;;13.18;58.52;100397.16;5105171;28;20035;-70
2023/01/04 10:48:19;;;;;;;26.27;13.60;;;;;;;13.20;58.79;100400.47;5095480;28;20028;-71
2023/01/04 10:50:56;;;;;;;21.73;12.82;;;;;;;13.16;58.08;100407.09;5098731;28;20112;-69
2023/01/04 10:53:36;;;;;;;21.70;13.23;;;;;;;13.24;57.96;100389.41;5096910;27;20027;-70
2023/01/04 10:56:11;;;;;;;;;;;;;;;13.22;57.86;100386.09;5093923;28;20040;-71
2023/01/04 10:58:48;;;;;;;36.08;14.85;;;;;;;13.30;57.99;100393.72;5104970;28;20266;-69
2023/01/04 11:01:33;;;;;;;20.50;12.48;;;;;;;13.34;57.71;100382.66;5099489;28;20448;-73
2023/01/04 11:04:12;;;;;;;19.63;12.32;;;;;;;13.33;57.00;100387.41;5089833;28;20477;-71
2023/01/04 11:07:19;;;;;;;24.50;12.85;;;;;;;13.33;57.13;100392.19;5096714;28;20486;-70
2023/01/04 11:09:51;;;;;;;17.42;11.85;;;;;;;13.41;56.63;100388.56;5025796;28;20182;-70
2023/01/04 11:12:20;;;;;;;19.45;11.75;;;;;;;13.39;56.22;100373.19;5091930;28;20484;-70
2023/01/04 11:14:46;;;;;;;19.08;11.80;;;;;;;13.41;57.03;100373.72;5093165;28;20051;-73
2023/01/04 11:17:12;;;;;;;22.85;12.02;;;;;;;13.49;56.72;100378.50;5097065;28;20467;-73
2023/01/04 11:19:42;;;;;;;29.60;11.68;;;;;;;13.71;56.62;100380.31;5096969;28;20028;-72
2023/01/04 11:22:22;;;;;;;18.05;11.63;;;;;;;13.66;56.43;100376.84;5106300;28;20030;-73
2023/01/04 11:24:53;;;;;;;17.35;11.80;;;;;;;13.67;55.51;100381.31;5100434;28;20024;-73
2023/01/04 11:27:26;;;;;;;16.13;11.35;;;;;;;13.54;55.87;100383.13;5093685;28;20042;-72
2023/01/04 11:30:16;;;;;;;21.33;11.90;;;;;;;13.46;56.02;100384.78;5097752;28;20027;-70
2023/01/04 11:32:52;;;;;;;30.52;13.50;;;;;;;13.55;55.58;100374.38;5099150;28;20093;-70
2023/01/04 11:35:41;;;;;;;25.92;11.27;;;;;;;13.45;55.27;100372.75;5089623;28;20081;-69
2023/01/04 11:38:19;;;;;;;20.50;11.55;;;;;;;13.54;55.92;100381.16;5097704;28;20023;-68
2023/01/04 11:41:18;;;;;;;25.92;12.60;;;;;;;13.48;55.46;100379.66;5099933;28;20474;-69
2023/01/04 11:43:56;;;;;;;17.30;12.32;;;;;;;13.59;56.52;100380.16;5074420;28;20132;-68
2023/01/04 11:46:24;;;;;;;16.83;11.77;;;;;;;13.55;55.16;100374.38;5099507;28;20114;-70
2023/01/04 11:48:51;;;;;;;15.93;11.85;;;;;;;13.67;55.88;100381.31;5091944;28;20518;-70
2023/01/04 11:51:25;;;;;;;19.95;12.00;;;;;;;13.70;55.36;100377.81;5097406;28;20080;-68
2023/01/04 11:54:04;;;;;;;25.42;11.07;;;;;;;13.52;55.41;100379.84;5092992;28;20533;-71
2023/01/04 11:56:31;;;;;;;16.38;11.35;;;;;;;13.47;55.54;100375.22;5089004;28;20437;-69
2023/01/04 11:59:17;;;;;;;17.73;12.00;;;;;;;13.44;56.25;100375.88;5095624;28;20416;-69
2023/01/04 12:01:51;;;;;;;18.52;12.13;;;;;;;13.55;55.33;100368.75;5097576;28;20048;-69
2023/01/04 12:04:26;;;;;;;21.42;12.60;;;;;;;13.60;55.23;100385.44;5094758;28;20125;-69
2023/01/04 12:06:55;;;;;;;17.08;11.63;;;;;;;13.55;55.34;100374.38;5104149;28;21422;-71
2023/01/04 12:09:21;;;;;;;19.95;12.00;;;;;;;13.48;55.78;100377.69;5104503;28;20058;-70
2023/01/04 12:11:50;;;;;;;18.50;13.43;;;;;;;13.32;56.03;100362.47;5094568;28;20044;-69
2023/01/04 12:14:25;;;;;;;22.55;11.77;;;;;;;13.45;55.46;100364.31;5096025;28;20027;-69